Time;durP1;ratioP1;P1;durP2;ratioP2;P2;SDS_P1;SDS_P2;PMS_P1;PMS_P2;Temp;Humidity;BMP_temperature;BMP_pressure;BME280_temperature;BME280_humidity;BME280_pressure;Samples;Min_cycle;Max_cycle;Signal;HPM_P1;HPM_P2
2022/08/01 00:00:09;;;;;;;1.85;1.42;;;18.00;99.90;;;;;;5016303;28;20098;-76
2022/08/01 00:02:38;;;;;;;2.40;1.70;;;18.00;99.90;;;;;;5016483;28;20052;-76
2022/08/01 00:05:07;;;;;;;2.42;1.67;;;18.00;99.90;;;;;;5015973;28;20783;-76
2022/08/01 00:07:34;;;;;;;3.40;1.67;;;18.00;99.90;;;;;;5016303;28;20481;-76
2022/08/01 00:10:01;;;;;;;4.93;2.03;;;18.00;99.90;;;;;;5015566;28;20018;-76
2022/08/01 00:12:26;;;;;;;5.00;2.42;;;18.00;99.90;;;;;;5016416;28;20129;-77
2022/08/01 00:14:52;;;;;;;3.97;2.40;;;18.00;99.90;;;;;;5018172;28;20030;-76
2022/08/01 00:17:17;;;;;;;6.18;3.10;;;18.00;99.90;;;;;;5015953;28;20034;-76
2022/08/01 00:19:43;;;;;;;5.35;2.90;;;18.00;99.90;;;;;;5015792;28;20026;-76
2022/08/01 00:22:09;;;;;;;4.82;2.88;;;18.00;99.90;;;;;;5015679;28;20032;-76
2022/08/01 00:24:34;;;;;;;3.80;2.70;;;18.00;84.40;;;;;;5015414;28;20413;-76
2022/08/01 00:27:00;;;;;;;5.97;3.03;;;17.90;2.30;;;;;;5015661;28;20084;-76
2022/08/01 00:29:25;;;;;;;6.65;2.67;;;17.90;1.00;;;;;;5020584;28;20036;-76
2022/08/01 00:31:51;;;;;;;8.13;3.67;;;17.80;12.30;;;;;;5072558;22;20013;-79
2022/08/01 00:34:17;;;;;;;11.82;4.28;;;17.80;1.00;;;;;;5033708;28;20057;-80
2022/08/01 00:36:43;;;;;;;7.05;3.00;;;17.80;1.00;;;;;;5033937;28;20544;-79
2022/08/01 00:39:09;;;;;;;6.55;3.60;;;17.90;1.00;;;;;;5033985;28;20036;-80
2022/08/01 00:41:35;;;;;;;7.28;4.53;;;17.80;1.00;;;;;;5033733;28;20091;-80
2022/08/01 00:44:05;;;;;;;6.00;2.80;;;17.70;1.00;;;;;;5034017;28;20665;-80
2022/08/01 00:46:32;;;;;;;7.93;3.85;;;17.70;1.00;;;;;;5034133;28;20033;-80
2022/08/01 00:48:58;;;;;;;6.38;3.42;;;17.70;1.00;;;;;;5034333;28;20045;-80
2022/08/01 00:51:25;;;;;;;5.43;2.75;;;17.70;1.00;;;;;;5032792;28;20112;-80
2022/08/01 00:53:51;;;;;;;8.93;3.40;;;17.50;1.00;;;;;;5032457;28;20116;-80
2022/08/01 00:56:17;;;;;;;7.18;4.38;;;17.70;1.00;;;;;;5032997;28;20021;-80
2022/08/01 00:58:43;;;;;;;6.63;4.13;;;17.40;1.00;;;;;;5033724;28;20040;-80
2022/08/01 01:01:09;;;;;;;8.88;3.67;;;17.50;1.00;;;;;;5034326;28;20022;-79
2022/08/01 01:03:35;;;;;;;6.10;3.53;;;17.50;1.00;;;;;;5033531;28;20078;-79
2022/08/01 01:06:12;;;;;;;7.07;3.88;;;17.40;1.00;;;;;;5049529;28;20104;-79
2022/08/01 01:08:43;;;;;;;6.43;3.45;;;17.40;1.00;;;;;;5053614;28;20035;-79
2022/08/01 01:11:25;;;;;;;8.20;2.83;;;17.30;1.00;;;;;;5054033;28;20029;-79
2022/08/01 01:13:57;;;;;;;7.15;3.05;;;17.30;1.00;;;;;;5053902;28;20029;-78
2022/08/01 01:16:23;;;;;;;9.05;2.78;;;17.30;1.00;;;;;;5053669;28;20483;-79
2022/08/01 01:18:56;;;;;;;4.82;3.17;;;17.20;4.90;;;;;;5053562;28;20660;-79
2022/08/01 01:21:28;;;;;;;5.30;2.60;;;17.30;4.50;;;;;;5053467;28;20025;-79
2022/08/01 01:24:15;;;;;;;7.65;2.85;;;17.20;15.30;;;;;;5053484;28;20029;-78
2022/08/01 01:27:14;;;;;;;5.40;2.65;;;17.20;29.20;;;;;;5013821;28;20026;-79
2022/08/01 01:29:44;;;;;;;7.82;2.35;;;17.20;50.40;;;;;;5013829;28;20045;-79
2022/08/01 01:32:33;;;;;;;6.57;2.30;;;17.20;20.40;;;;;;5013244;28;20050;-78
2022/08/01 01:35:03;;;;;;;3.83;2.20;;;17.30;10.10;;;;;;5013572;28;20462;-79
2022/08/01 01:37:31;;;;;;;9.50;2.50;;;17.30;4.20;;;;;;5031434;28;20072;-78
2022/08/01 01:39:58;;;;;;;3.70;2.22;;;17.30;3.10;;;;;;5033230;28;20026;-78
2022/08/01 01:42:26;;;;;;;4.18;2.13;;;17.30;1.00;;;;;;5032108;28;20033;-79
2022/08/01 01:44:54;;;;;;;4.82;1.70;;;17.30;1.00;;;;;;5029191;28;20018;-78
2022/08/01 01:47:21;;;;;;;4.13;2.45;;;17.30;1.00;;;;;;5029340;28;20469;-79
2022/08/01 01:49:48;;;;;;;7.22;2.60;;;17.30;1.00;;;;;;5050118;28;20476;-79
2022/08/01 01:52:15;;;;;;;9.48;2.47;;;17.30;1.00;;;;;;5053185;28;20033;-78
2022/08/01 01:54:46;;;;;;;8.98;2.85;;;17.20;1.00;;;;;;5053050;28;20021;-78
2022/08/01 01:57:14;;;;;;;12.60;2.65;;;17.20;1.00;;;;;;5036068;28;20029;-78
2022/08/01 01:59:41;;;;;;;10.20;3.30;;;17.20;1.00;;;;;;5033139;28;20470;-78
2022/08/01 02:02:08;;;;;;;9.95;2.70;;;17.20;1.00;;;;;;5033015;28;20026;-78
2022/08/01 02:04:44;;;;;;;10.23;4.13;;;17.30;1.00;;;;;;5033111;28;20547;-78
2022/08/01 02:07:14;;;;;;;10.82;2.47;;;17.20;1.00;;;;;;5040509;28;20033;-78
2022/08/01 02:09:42;;;;;;;12.50;3.20;;;17.20;1.00;;;;;;5048959;28;20054;-78
2022/08/01 02:12:11;;;;;;;6.95;2.38;;;17.20;1.00;;;;;;5035901;28;20029;-78
2022/08/01 02:14:39;;;;;;;11.43;2.92;;;17.20;1.00;;;;;;5036838;28;20036;-78
2022/08/01 02:17:05;;;;;;;6.57;2.38;;;17.20;1.00;;;;;;5036995;28;20113;-78
2022/08/01 02:19:33;;;;;;;10.68;2.72;;;17.20;1.00;;;;;;5036848;28;20092;-78
2022/08/01 02:22:10;;;;;;;10.85;2.72;;;17.10;99.90;;;;;;5036660;28;20021;-78
2022/08/01 02:24:52;;;;;;;7.80;2.53;;;17.20;99.90;;;;;;5035298;28;20033;-78
2022/08/01 02:27:45;;;;;;;12.02;2.88;;;17.20;99.90;;;;;;5052794;28;20465;-78
2022/08/01 02:30:13;;;;;;;9.98;2.35;;;17.20;99.90;;;;;;5056226;28;20388;-78
2022/08/01 02:32:46;;;;;;;9.15;2.30;;;17.20;99.90;;;;;;5054811;28;20044;-78
2022/08/01 02:35:17;;;;;;;8.52;2.70;;;17.10;99.90;;;;;;5036453;28;20357;-78
2022/08/01 02:37:45;;;;;;;8.77;2.65;;;17.10;99.90;;;;;;5020250;28;20036;-78
2022/08/01 02:40:13;;;;;;;11.95;2.30;;;17.20;99.90;;;;;;5016551;28;20030;-78
2022/08/01 02:42:41;;;;;;;9.48;2.38;;;17.10;99.90;;;;;;5016438;28;20029;-78
2022/08/01 02:45:08;;;;;;;11.60;2.60;;;17.00;99.90;;;;;;5028803;28;20021;-78
2022/08/01 02:47:37;;;;;;;9.50;2.92;;;17.10;99.90;;;;;;5036031;28;20033;-78
2022/08/01 02:50:04;;;;;;;9.77;3.10;;;17.20;99.90;;;;;;5036115;28;20025;-78
2022/08/01 02:52:31;;;;;;;13.18;3.55;;;17.00;99.90;;;;;;5036093;28;20033;-78
2022/08/01 02:54:58;;;;;;;9.50;2.83;;;17.00;99.90;;;;;;5036158;28;20022;-78
2022/08/01 02:57:26;;;;;;;5.60;2.40;;;17.00;99.90;;;;;;5036291;28;20039;-78
2022/08/01 02:59:53;;;;;;;9.25;2.30;;;17.00;99.90;;;;;;5035910;28;20025;-78
2022/08/01 03:02:22;;;;;;;5.50;2.70;;;16.90;99.90;;;;;;5036090;28;20029;-78
2022/08/01 03:04:48;;;;;;;7.82;2.65;;;16.90;99.90;;;;;;5035895;28;20021;-78
2022/08/01 03:07:15;;;;;;;8.25;2.65;;;16.90;99.90;;;;;;5034778;28;20074;-78
2022/08/01 03:09:44;;;;;;;6.05;2.30;;;17.00;99.90;;;;;;5035867;28;20030;-78
2022/08/01 03:12:17;;;;;;;9.85;2.60;;;16.90;99.90;;;;;;5034612;28;20029;-78
2022/08/01 03:14:44;;;;;;;13.43;2.67;;;16.90;99.90;;;;;;5036180;28;20029;-78
2022/08/01 03:17:11;;;;;;;9.50;2.08;;;16.80;99.90;;;;;;5035908;28;20026;-78
2022/08/01 03:19:38;;;;;;;11.40;2.50;;;16.80;99.90;;;;;;5035980;28;20020;-78
2022/08/01 03:22:08;;;;;;;10.80;2.33;;;16.80;99.90;;;;;;5035564;28;20033;-78
2022/08/01 03:24:35;;;;;;;8.98;2.22;;;16.90;99.90;;;;;;5035471;28;20604;-78
2022/08/01 03:27:02;;;;;;;13.02;2.40;;;16.80;99.90;;;;;;5035765;28;20024;-78
2022/08/01 03:29:31;;;;;;;6.88;2.10;;;16.80;99.90;;;;;;5035663;28;20410;-78
2022/08/01 03:31:59;;;;;;;7.30;1.95;;;16.90;99.90;;;;;;5035112;28;20045;-79
2022/08/01 03:34:27;;;;;;;12.20;2.20;;;16.70;99.90;;;;;;5035531;28;20026;-77
2022/08/01 03:37:14;;;;;;;14.80;2.30;;;16.70;99.90;;;;;;5035223;28;20021;-77
2022/08/01 03:40:03;;;;;;;9.40;2.70;;;16.60;99.90;;;;;;5035196;28;20461;-78
2022/08/01 03:42:37;;;;;;;8.73;2.00;;;16.50;99.90;;;;;;5035291;28;20025;-78
2022/08/01 03:45:09;;;;;;;11.48;2.88;;;16.60;99.90;;;;;;5035427;28;20021;-77
2022/08/01 03:47:35;;;;;;;14.52;2.25;;;16.60;99.90;;;;;;5022257;28;20021;-78
2022/08/01 03:50:04;;;;;;;12.52;2.10;;;16.60;99.90;;;;;;5036194;28;20052;-77
2022/08/01 03:52:31;;;;;;;14.50;2.47;;;16.60;99.90;;;;;;5035698;28;20122;-77
2022/08/01 03:55:09;;;;;;;15.10;2.55;;;16.50;99.90;;;;;;5033356;28;20048;-78
2022/08/01 03:57:35;;;;;;;10.25;1.95;;;16.50;99.90;;;;;;5021969;28;20028;-77
2022/08/01 04:00:05;;;;;;;13.55;2.03;;;16.40;99.90;;;;;;5034896;28;20466;-77
2022/08/01 04:02:31;;;;;;;8.27;1.90;;;16.40;99.90;;;;;;5042599;28;20031;-77
2022/08/01 04:04:58;;;;;;;10.18;1.85;;;16.40;99.90;;;;;;5044917;28;20025;-77
2022/08/01 04:07:27;;;;;;;10.10;1.88;;;16.40;99.90;;;;;;5034887;28;20025;-77
2022/08/01 04:09:52;;;;;;;11.27;1.92;;;16.40;99.90;;;;;;5033546;28;20120;-77
2022/08/01 04:12:18;;;;;;;12.02;1.85;;;16.40;99.90;;;;;;5034546;28;20529;-77
2022/08/01 04:14:44;;;;;;;15.80;2.25;;;16.40;99.90;;;;;;5034678;28;20026;-78
2022/08/01 04:17:10;;;;;;;10.13;2.20;;;16.40;99.90;;;;;;5034761;28;20044;-78
2022/08/01 04:19:35;;;;;;;12.63;2.47;;;16.50;99.90;;;;;;5034491;28;20017;-77
2022/08/01 04:22:02;;;;;;;13.90;2.28;;;16.40;99.90;;;;;;5034309;28;20492;-77
2022/08/01 04:24:29;;;;;;;9.32;1.90;;;16.50;99.90;;;;;;5034540;28;20022;-78
2022/08/01 04:26:59;;;;;;;13.45;2.67;;;16.40;99.90;;;;;;5034712;28;20021;-77
2022/08/01 04:29:26;;;;;;;9.65;2.28;;;16.40;99.90;;;;;;5034042;28;20036;-77
2022/08/01 04:31:54;;;;;;;10.70;2.45;;;16.40;99.90;;;;;;5034041;28;20029;-77
2022/08/01 04:34:23;;;;;;;10.65;2.40;;;16.40;99.90;;;;;;5033353;28;20085;-77
2022/08/01 04:36:51;;;;;;;10.50;2.60;;;16.40;99.90;;;;;;5033970;28;20442;-77
2022/08/01 04:39:18;;;;;;;12.77;2.88;;;16.40;99.90;;;;;;5034120;28;20024;-77
2022/08/01 04:41:46;;;;;;;10.98;2.35;;;16.40;99.90;;;;;;5034008;28;20029;-77
2022/08/01 04:44:13;;;;;;;15.07;2.70;;;16.40;99.90;;;;;;5033876;28;20018;-77
2022/08/01 04:46:39;;;;;;;6.00;2.08;;;16.40;99.90;;;;;;5033744;28;20052;-77
2022/08/01 04:49:07;;;;;;;9.15;2.38;;;16.40;99.90;;;;;;5033813;28;20076;-77
2022/08/01 04:51:33;;;;;;;8.90;2.33;;;16.40;99.90;;;;;;5033654;28;20083;-77
2022/08/01 04:53:58;;;;;;;9.02;2.00;;;16.40;99.90;;;;;;5033594;28;20061;-77
2022/08/01 04:56:24;;;;;;;13.07;2.17;;;16.40;99.90;;;;;;5033734;28;20385;-77
2022/08/01 04:59:39;;;;;;;14.13;2.10;;;16.50;99.90;;;;;;5032369;28;20475;-77
2022/08/01 05:01:35;;;;;;;11.05;2.53;;;16.40;99.90;;;;;;5033800;28;20029;-77
2022/08/01 05:04:00;;;;;;;14.25;2.35;;;16.40;99.90;;;;;;5033506;28;20113;-77
2022/08/01 05:06:26;;;;;;;11.98;2.50;;;16.40;99.90;;;;;;5033344;28;20088;-77
2022/08/01 05:08:51;;;;;;;12.52;2.40;;;16.60;99.90;;;;;;5033486;28;20025;-77
2022/08/01 05:11:17;;;;;;;14.52;2.20;;;16.50;99.90;;;;;;5032120;28;20611;-77
2022/08/01 05:13:43;;;;;;;12.07;2.67;;;16.70;99.90;;;;;;5033147;28;20346;-77
2022/08/01 05:16:08;;;;;;;11.85;2.78;;;16.60;99.90;;;;;;5033597;28;20017;-77
2022/08/01 05:18:34;;;;;;;10.05;1.85;;;16.50;99.90;;;;;;5031868;28;20021;-77
2022/08/01 05:21:00;;;;;;;7.45;1.90;;;16.50;99.90;;;;;;5032740;28;20469;-77
2022/08/01 05:23:26;;;;;;;8.85;2.17;;;16.60;99.90;;;;;;5033144;28;20033;-77
2022/08/01 05:25:52;;;;;;;13.20;2.65;;;16.60;99.90;;;;;;5033690;28;20017;-77
2022/08/01 05:28:18;;;;;;;10.02;2.42;;;16.70;99.90;;;;;;5033330;28;20014;-77
2022/08/01 05:30:43;;;;;;;10.25;2.60;;;16.80;99.90;;;;;;5033967;28;20326;-77
2022/08/01 05:33:09;;;;;;;9.88;2.50;;;17.00;85.00;;;;;;5032848;28;20060;-77
2022/08/01 05:35:34;;;;;;;13.63;2.80;;;17.10;97.00;;;;;;5020991;28;20021;-77
2022/08/01 05:38:00;;;;;;;15.13;2.60;;;17.30;41.00;;;;;;5020266;28;20124;-77
2022/08/01 05:40:25;;;;;;;9.38;2.40;;;17.40;10.10;;;;;;5027996;28;20025;-76
2022/08/01 05:42:51;;;;;;;12.98;2.10;;;17.30;1.00;;;;;;5016083;28;20385;-77
2022/08/01 05:45:16;;;;;;;13.50;2.60;;;17.40;1.00;;;;;;5015646;28;20025;-79
2022/08/01 05:47:42;;;;;;;7.82;1.95;;;17.50;1.00;;;;;;5015139;28;20030;-77
2022/08/01 05:50:08;;;;;;;12.77;2.92;;;17.60;1.00;;;;;;5033121;28;20028;-77
2022/08/01 05:52:34;;;;;;;9.02;2.08;;;17.70;1.00;;;;;;5031827;28;20029;-77
2022/08/01 05:54:59;;;;;;;10.27;2.42;;;17.80;1.00;;;;;;5027454;28;20366;-77
2022/08/01 05:57:25;;;;;;;10.05;2.80;;;17.80;1.00;;;;;;5027158;28;20033;-78
2022/08/01 05:59:50;;;;;;;6.15;1.77;;;17.80;1.00;;;;;;5026190;28;20504;-77
2022/08/01 06:02:16;;;;;;;10.75;2.50;;;18.10;1.00;;;;;;5016416;28;20030;-78
2022/08/01 06:04:41;;;;;;;8.23;2.25;;;18.20;1.00;;;;;;5022221;28;20022;-78
2022/08/01 06:07:07;;;;;;;10.40;2.28;;;18.50;1.00;;;;;;5017529;28;20018;-77
2022/08/01 06:09:33;;;;;;;7.00;2.72;;;19.00;1.00;;;;;;5032839;28;20395;-77
2022/08/01 06:11:58;;;;;;;6.28;1.90;;;24.30;99.90;;;;;;5032917;28;20474;-77
2022/08/01 06:14:24;;;;;;;8.00;1.63;;;27.40;99.90;;;;;;5035939;28;20025;-77
2022/08/01 06:16:49;;;;;;;7.55;1.88;;;25.70;99.90;;;;;;5052764;28;20032;-78
2022/08/01 06:19:15;;;;;;;12.30;1.77;;;26.10;99.90;;;;;;5052667;28;20122;-78
2022/08/01 06:21:40;;;;;;;8.60;1.90;;;27.10;99.90;;;;;;5052657;28;20037;-78
2022/08/01 06:24:06;;;;;;;11.43;2.17;;;28.50;99.90;;;;;;5052234;28;20026;-79
2022/08/01 06:26:32;;;;;;;6.63;1.73;;;29.60;99.90;;;;;;5044949;28;20017;-77
2022/08/01 06:28:57;;;;;;;7.57;1.70;;;30.90;99.90;;;;;;5052639;28;20804;-77
2022/08/01 06:31:23;;;;;;;7.78;1.30;;;32.50;99.90;;;;;;5043011;28;20339;-77
2022/08/01 06:33:49;;;;;;;8.30;1.67;;;31.70;99.70;;;;;;5035838;28;20053;-76
2022/08/01 06:36:14;;;;;;;10.68;2.10;;;31.80;98.90;;;;;;5033309;28;20034;-75
2022/08/01 06:38:40;;;;;;;8.55;1.90;;;32.30;95.30;;;;;;5032877;28;20029;-75
2022/08/01 06:41:05;;;;;;;6.07;1.50;;;31.40;92.00;;;;;;5032457;28;20021;-77
2022/08/01 06:43:31;;;;;;;6.10;1.30;;;32.00;90.90;;;;;;5033342;28;20037;-76
2022/08/01 06:45:56;;;;;;;9.45;1.17;;;32.30;81.30;;;;;;5032729;28;20396;-76
2022/08/01 06:48:22;;;;;;;6.35;1.40;;;31.40;77.30;;;;;;5032614;28;20071;-79
2022/08/01 06:50:48;;;;;;;4.45;1.15;;;32.30;75.50;;;;;;5028776;28;20017;-79
2022/08/01 06:53:13;;;;;;;8.32;1.50;;;32.50;70.10;;;;;;5035767;28;20126;-78
2022/08/01 06:55:39;;;;;;;8.90;1.40;;;32.60;68.20;;;;;;5036725;28;20025;-79
2022/08/01 06:58:05;;;;;;;3.58;1.00;;;35.80;68.50;;;;;;5045466;28;20028;-79
2022/08/01 07:00:30;;;;;;;4.18;1.30;;;33.60;47.80;;;;;;5033243;28;20436;-79
2022/08/01 07:02:58;;;;;;;9.48;1.73;;;33.90;46.70;;;;;;5042305;28;20465;-79
2022/08/01 07:05:24;;;;;;;5.13;1.05;;;35.50;45.00;;;;;;5047662;28;20040;-79
2022/08/01 07:07:50;;;;;;;4.80;1.08;;;34.90;35.20;;;;;;5050986;28;20010;-79
2022/08/01 07:10:16;;;;;;;4.88;1.58;;;33.70;27.40;;;;;;5047619;28;20105;-79
2022/08/01 07:12:42;;;;;;;4.88;1.13;;;35.30;29.70;;;;;;5052274;28;20289;-79
2022/08/01 07:15:09;;;;;;;6.40;1.50;;;35.00;25.80;;;;;;5053847;28;20029;-79
2022/08/01 07:17:39;;;;;;;3.20;0.90;;;35.00;22.30;;;;;;5049809;28;20014;-80
2022/08/01 07:20:10;;;;;;;4.80;1.10;;;34.00;17.20;;;;;;5050910;28;20017;-80
2022/08/01 07:22:36;;;;;;;5.47;1.20;;;34.20;16.90;;;;;;5049892;28;20036;-80
2022/08/01 07:25:02;;;;;;;7.22;1.35;;;35.50;17.30;;;;;;5052797;28;20029;-80
2022/08/01 07:27:28;;;;;;;6.72;1.25;;;36.30;16.10;;;;;;5048115;28;20018;-79
2022/08/01 07:29:53;;;;;;;5.57;1.23;;;36.90;13.10;;;;;;5049245;28;20033;-79
2022/08/01 07:32:19;;;;;;;3.20;1.10;;;35.80;7.30;;;;;;5061610;28;20029;-79
2022/08/01 07:34:45;;;;;;;4.85;1.40;;;36.80;7.70;;;;;;5047749;28;20045;-79
2022/08/01 07:37:10;;;;;;;3.55;1.08;;;36.30;3.90;;;;;;5048587;28;20045;-79
2022/08/01 07:39:36;;;;;;;6.15;1.45;;;36.60;2.60;;;;;;5045437;28;20026;-79
2022/08/01 07:42:01;;;;;;;3.03;0.77;;;38.10;3.50;;;;;;5051134;28;20044;-79
2022/08/01 07:44:27;;;;;;;8.82;1.50;;;37.50;1.00;;;;;;5056345;28;20064;-79
2022/08/01 07:46:52;;;;;;;8.07;1.30;;;36.10;1.00;;;;;;5056408;28;20021;-79
2022/08/01 07:49:18;;;;;;;6.75;1.27;;;36.00;1.00;;;;;;5050284;28;20048;-78
2022/08/01 07:51:44;;;;;;;6.88;1.30;;;35.40;1.00;;;;;;5057590;28;20078;-78
2022/08/01 07:54:09;;;;;;;5.13;0.98;;;34.60;1.00;;;;;;5055747;28;20017;-78
2022/08/01 07:56:35;;;;;;;5.43;1.40;;;31.00;1.00;;;;;;5046718;28;20029;-81
2022/08/01 07:59:00;;;;;;;5.45;1.58;;;32.50;1.00;;;;;;5042518;28;20046;-78
2022/08/01 08:01:27;;;;;;;6.60;1.50;;;34.80;1.00;;;;;;5060954;28;20053;-79
2022/08/01 08:03:52;;;;;;;8.82;1.52;;;34.30;1.00;;;;;;5034985;28;20026;-81
2022/08/01 08:06:18;;;;;;;5.53;1.10;;;33.10;1.00;;;;;;5055843;28;20024;-80
2022/08/01 08:08:43;;;;;;;6.97;1.40;;;35.20;1.00;;;;;;5045206;28;20039;-79
2022/08/01 08:11:09;;;;;;;5.03;1.42;;;37.20;1.00;;;;;;5057874;28;20304;-79
2022/08/01 08:13:34;;;;;;;4.15;1.35;;;34.50;1.00;;;;;;5054318;28;20435;-78
2022/08/01 08:16:00;;;;;;;6.88;1.10;;;36.00;1.00;;;;;;5042234;28;20020;-76
2022/08/01 08:18:26;;;;;;;8.23;1.38;;;33.30;1.00;;;;;;5052520;28;20005;-78
2022/08/01 08:20:51;;;;;;;6.25;1.30;;;33.40;1.00;;;;;;5052883;28;20041;-80
2022/08/01 08:26:01;;;;;;;4.20;1.40;;;32.50;1.00;;;;;;5048708;28;20035;-79
2022/08/01 08:28:27;;;;;;;5.05;1.27;;;33.10;1.00;;;;;;5048279;28;20025;-80
2022/08/01 08:30:54;;;;;;;2.85;1.10;;;34.40;1.00;;;;;;5045323;28;20022;-80
2022/08/01 08:33:20;;;;;;;5.85;1.17;;;34.40;1.00;;;;;;5050303;28;20057;-78
2022/08/01 08:35:46;;;;;;;6.70;1.30;;;33.30;1.00;;;;;;5039930;28;20072;-79
2022/08/01 08:38:11;;;;;;;5.03;0.93;;;34.20;1.00;;;;;;5037325;28;20029;-79
2022/08/01 08:40:37;;;;;;;4.07;1.30;;;33.90;1.00;;;;;;5036193;28;20060;-79
2022/08/01 08:43:05;;;;;;;4.53;1.15;;;31.60;1.00;;;;;;5034947;28;20029;-79
2022/08/01 08:45:31;;;;;;;4.90;0.90;;;32.20;1.00;;;;;;5021476;28;20025;-79
2022/08/01 08:47:57;;;;;;;5.68;1.10;;;33.90;1.00;;;;;;5038636;28;20029;-80
2022/08/01 08:50:25;;;;;;;4.50;1.20;;;32.70;1.00;;;;;;5048724;28;20025;-79
2022/08/01 08:52:52;;;;;;;5.18;1.15;;;31.80;1.00;;;;;;5036937;28;20030;-78
2022/08/01 08:55:19;;;;;;;7.65;1.63;;;30.80;1.00;;;;;;5053825;28;20013;-78
2022/08/01 08:57:45;;;;;;;4.65;0.95;;;32.90;1.00;;;;;;5039376;28;20016;-79
2022/08/01 09:00:12;;;;;;;5.53;1.10;;;32.60;1.00;;;;;;5057297;28;20069;-78
2022/08/01 09:02:43;;;;;;;3.63;0.98;;;32.70;1.00;;;;;;5049483;28;20017;-79
2022/08/01 09:05:09;;;;;;;6.88;1.15;;;32.30;1.00;;;;;;5056005;28;20077;-78
2022/08/01 09:07:34;;;;;;;6.60;0.90;;;33.20;1.00;;;;;;5052732;28;20014;-78
2022/08/01 09:10:00;;;;;;;8.05;1.20;;;32.50;1.00;;;;;;5062627;28;20073;-78
2022/08/01 09:12:26;;;;;;;5.35;1.17;;;33.80;1.00;;;;;;5061514;28;20029;-78
2022/08/01 09:14:53;;;;;;;4.65;1.02;;;35.40;1.00;;;;;;5057144;28;20060;-78
2022/08/01 09:17:19;;;;;;;5.15;1.13;;;30.40;1.00;;;;;;5057318;28;20029;-78
2022/08/01 09:19:47;;;;;;;6.18;1.05;;;31.90;1.00;;;;;;5053349;28;20028;-78
2022/08/01 09:22:17;;;;;;;4.57;1.02;;;29.70;1.00;;;;;;5043281;28;20032;-78
2022/08/01 09:25:08;;;;;;;3.25;0.80;;;31.50;1.00;;;;;;5043946;28;20029;-82
2022/08/01 09:27:35;;;;;;;5.40;0.90;;;32.60;1.00;;;;;;5038108;28;20053;-80
2022/08/01 09:30:17;;;;;;;5.32;0.95;;;32.50;1.00;;;;;;5034885;28;20032;-79
2022/08/01 09:32:54;;;;;;;5.22;1.20;;;33.50;1.00;;;;;;5034073;28;20061;-80
2022/08/01 09:35:26;;;;;;;6.43;1.20;;;33.40;1.00;;;;;;5036873;28;20034;-84
2022/08/01 09:37:51;;;;;;;4.18;0.88;;;34.90;1.00;;;;;;5037173;28;20030;-82
2022/08/01 09:40:17;;;;;;;4.47;0.90;;;35.20;1.00;;;;;;5035387;28;20465;-82
2022/08/01 09:42:42;;;;;;;3.35;1.00;;;35.10;1.00;;;;;;5034670;28;20033;-82
2022/08/01 09:45:09;;;;;;;4.70;0.95;;;36.30;1.00;;;;;;5035044;28;20136;-82
2022/08/01 09:47:39;;;;;;;1.83;0.70;;;36.60;1.00;;;;;;5034780;28;20057;-82
2022/08/01 09:50:06;;;;;;;5.82;0.98;;;35.50;1.00;;;;;;5021272;28;20026;-81
2022/08/01 09:52:32;;;;;;;8.95;1.10;;;34.90;1.00;;;;;;5043264;28;20035;-81
2022/08/01 09:55:00;;;;;;;6.43;1.13;;;35.20;1.00;;;;;;5032894;28;20105;-81
2022/08/01 09:57:28;;;;;;;2.80;1.10;;;35.70;1.00;;;;;;5021828;28;20108;-81
2022/08/01 09:59:56;;;;;;;5.47;0.77;;;35.60;1.00;;;;;;5032980;28;20029;-82
2022/08/01 10:02:31;;;;;;;6.93;1.15;;;35.40;1.00;;;;;;5033903;28;20099;-82
2022/08/01 10:04:57;;;;;;;4.40;0.95;;;35.00;1.00;;;;;;5028967;28;20026;-84
2022/08/01 10:07:22;;;;;;;5.97;0.80;;;35.50;1.00;;;;;;5054681;28;20060;-82
2022/08/01 10:09:48;;;;;;;2.10;0.52;;;35.30;1.00;;;;;;5041096;28;20389;-82
2022/08/01 10:12:18;;;;;;;5.22;0.80;;;32.20;1.00;;;;;;5032584;28;20025;-81
2022/08/01 10:14:46;;;;;;;4.75;1.05;;;32.80;1.00;;;;;;5032962;28;20026;-82
2022/08/01 10:17:14;;;;;;;2.42;1.10;;;33.80;1.00;;;;;;5034814;28;20428;-84
2022/08/01 10:19:42;;;;;;;6.75;1.30;;;33.60;1.00;;;;;;5038799;28;20032;-84
2022/08/01 10:22:09;;;;;;;3.38;0.77;;;34.40;1.00;;;;;;5040493;28;20045;-84
2022/08/01 10:24:38;;;;;;;4.18;0.85;;;34.00;1.00;;;;;;5038453;28;20384;-83
2022/08/01 10:27:07;;;;;;;2.78;0.70;;;34.80;1.00;;;;;;5033069;28;20104;-81
2022/08/01 10:29:42;;;;;;;2.10;0.80;;;34.30;1.00;;;;;;5032804;28;20029;-81
2022/08/01 10:32:09;;;;;;;3.03;0.77;;;34.00;1.00;;;;;;5036210;28;20032;-81
2022/08/01 10:34:36;;;;;;;2.53;0.43;;;33.40;1.00;;;;;;5031785;28;20163;-82
2022/08/01 10:37:03;;;;;;;4.65;0.90;;;32.10;1.00;;;;;;5037066;28;20088;-82
2022/08/01 10:39:31;;;;;;;3.00;0.68;;;31.80;1.00;;;;;;5042248;28;20044;-83
2022/08/01 10:41:57;;;;;;;3.53;0.93;;;32.40;1.00;;;;;;5030724;28;20132;-82
2022/08/01 10:44:24;;;;;;;3.33;0.90;;;33.00;1.00;;;;;;5039293;28;20052;-81
2022/08/01 10:46:55;;;;;;;4.47;0.88;;;32.60;1.00;;;;;;5038404;28;20021;-83
2022/08/01 10:49:24;;;;;;;3.35;0.70;;;33.30;1.00;;;;;;5039000;28;20120;-82
2022/08/01 10:51:49;;;;;;;3.75;1.00;;;33.20;1.00;;;;;;5038225;28;20024;-84
2022/08/01 10:54:15;;;;;;;5.32;0.95;;;33.50;1.00;;;;;;5025093;28;20017;-85
2022/08/01 10:56:46;;;;;;;2.70;0.80;;;32.60;1.00;;;;;;5048263;28;20025;-83
2022/08/01 10:59:29;;;;;;;2.72;0.77;;;32.00;1.00;;;;;;5048893;28;20025;-84
2022/08/01 11:01:58;;;;;;;5.28;1.05;;;32.20;1.00;;;;;;5045129;28;20029;-84
2022/08/01 11:04:43;;;;;;;5.47;0.90;;;32.00;1.00;;;;;;5051382;28;20032;-82
2022/08/01 11:07:18;;;;;;;2.83;0.80;;;31.00;1.00;;;;;;5043287;28;20033;-83
2022/08/01 11:10:01;;;;;;;2.75;0.70;;;30.40;1.00;;;;;;5040258;28;20376;-87
2022/08/01 11:12:41;;;;;;;4.22;1.30;;;29.30;1.00;;;;;;5036626;28;20017;-86
2022/08/01 11:15:10;;;;;;;4.97;1.10;;;28.00;1.00;;;;;;5040138;28;20044;-83
2022/08/01 11:17:36;;;;;;;3.72;0.80;;;26.70;1.00;;;;;;5037650;28;20093;-83
2022/08/01 11:20:11;;;;;;;3.90;0.70;;;25.90;1.00;;;;;;5036207;28;20099;-84
2022/08/01 11:22:58;;;;;;;5.20;0.80;;;25.00;1.00;;;;;;5036117;28;20048;-86
2022/08/01 11:25:24;;;;;;;3.08;1.05;;;25.10;1.00;;;;;;5037466;28;20493;-85
2022/08/01 11:28:16;;;;;;;2.05;0.68;;;25.20;1.00;;;;;;5037125;28;20028;-83
2022/08/01 11:30:43;;;;;;;3.17;0.80;;;24.90;1.00;;;;;;5050226;28;20049;-83
2022/08/01 11:33:10;;;;;;;2.30;0.88;;;24.70;1.00;;;;;;5035508;28;20413;-84
2022/08/01 11:35:36;;;;;;;5.60;0.95;;;24.60;1.00;;;;;;5035546;28;20068;-81
2022/08/01 11:38:24;;;;;;;5.63;1.83;;;23.40;1.00;;;;;;5035286;28;20017;-81
2022/08/01 11:41:17;;;;;;;2.42;0.80;;;23.70;1.00;;;;;;5034076;28;20028;-81
2022/08/01 11:43:56;;;;;;;3.58;0.80;;;24.40;1.00;;;;;;5022492;28;20076;-82
2022/08/01 11:46:40;;;;;;;;;;;23.90;1.00;;;;;;5036051;28;20080;-81
2022/08/01 11:49:25;;;;;;;4.68;0.80;;;24.00;1.00;;;;;;5035468;28;19905;-80
2022/08/01 11:52:11;;;;;;;2.72;0.60;;;24.10;1.00;;;;;;5018818;28;20028;-80
2022/08/01 11:54:42;;;;;;;4.05;1.02;;;23.70;1.00;;;;;;5035268;28;20064;-80
2022/08/01 11:57:13;;;;;;;3.38;0.63;;;23.30;1.00;;;;;;5035441;28;20017;-81
2022/08/01 11:59:50;;;;;;;3.53;1.00;;;23.40;1.00;;;;;;5029578;28;20025;-80
2022/08/01 12:02:18;;;;;;;1.92;1.00;;;23.20;1.00;;;;;;5033990;28;20116;-80
2022/08/01 12:04:48;;;;;;;2.95;0.80;;;23.60;7.30;;;;;;5035581;28;20458;-82
2022/08/01 12:07:15;;;;;;;5.70;0.90;;;23.10;14.90;;;;;;5035258;28;20021;-80
2022/08/01 12:09:41;;;;;;;1.52;0.70;;;23.40;16.90;;;;;;5035029;28;20026;-81
2022/08/01 12:12:07;;;;;;;3.80;0.82;;;23.60;22.70;;;;;;5035076;28;20040;-82
2022/08/01 12:14:32;;;;;;;5.32;1.00;;;23.60;28.90;;;;;;5035025;28;20022;-82
2022/08/01 12:16:58;;;;;;;5.40;0.98;;;24.00;29.90;;;;;;5034713;28;20472;-82
2022/08/01 12:19:24;;;;;;;5.75;0.98;;;23.60;28.70;;;;;;5034934;28;20546;-81
2022/08/01 12:22:10;;;;;;;2.70;0.77;;;24.40;52.50;;;;;;5034841;28;20022;-80
2022/08/01 12:24:37;;;;;;;4.53;0.82;;;23.70;51.60;;;;;;5034377;28;20509;-80
2022/08/01 12:27:04;;;;;;;2.75;0.68;;;23.70;48.20;;;;;;5034658;28;20038;-81
2022/08/01 12:29:43;;;;;;;5.43;1.10;;;23.70;54.60;;;;;;5034435;28;20052;-81
2022/08/01 12:32:24;;;;;;;3.65;0.82;;;23.90;54.70;;;;;;5028021;28;20038;-81
2022/08/01 12:34:50;;;;;;;4.53;0.60;;;24.30;56.80;;;;;;5034564;28;20044;-82
2022/08/01 12:37:17;;;;;;;5.22;0.82;;;24.10;55.00;;;;;;5034428;28;20030;-81
2022/08/01 12:39:44;;;;;;;4.55;0.85;;;24.10;61.70;;;;;;5034704;28;20017;-81
2022/08/01 12:42:10;;;;;;;3.00;0.80;;;23.40;70.00;;;;;;5034308;28;20552;-81
2022/08/01 12:44:37;;;;;;;7.50;0.80;;;23.10;87.10;;;;;;5031770;28;20022;-81
2022/08/01 12:47:05;;;;;;;2.47;0.82;;;23.60;89.30;;;;;;5020377;28;20030;-80
2022/08/01 12:49:35;;;;;;;3.28;0.63;;;23.50;83.70;;;;;;5022766;28;20025;-81
2022/08/01 12:52:01;;;;;;;;;;;23.70;85.10;;;;;;5028522;28;20030;-80
2022/08/01 12:54:27;;;;;;;4.10;0.80;;;24.30;86.50;;;;;;5031017;28;19951;-80
2022/08/01 12:56:53;;;;;;;5.93;0.88;;;24.10;81.00;;;;;;5033496;28;20053;-81
2022/08/01 12:59:25;;;;;;;3.65;1.15;;;24.00;76.70;;;;;;5032169;28;20025;-80